Terminal Aerodrome Forecast
Issued by NWS

Home | Current Version | Previous Version | Text Only | Print | Product List | Glossary Off
Versions: 1 2 3 4 5 6 7 8 9 10 11 12 13 14 15 16 17 18 19 20 21 22 23 24 25 26 27 28 29 30 31 32 33 34 35 36 37 38 39 40 41 42 43 44 45 46 47 48 49 50

000
FTUS43 KLOT 260900 AAA
TAFGYY
TAF AMD
KGYY 260902Z 2609/2706 06005KT P6SM FEW022
      TEMPO 2609/2612 BKN022
     FM261200 VRB04KT P6SM SCT025 BKN090
     FM262000 17005KT P6SM OVC025 PROB30 2621/2703 2SM -SN OVC015
     FM270300 14005KT P6SM -SN SCT010 OVC015=

USA.gov is the U.S. government's official web portal to all federal, state and local government web resources and services.